Time;durP1;ratioP1;P1;durP2;ratioP2;P2;SDS_P1;SDS_P2;PMS_P1;PMS_P2;Temp;Humidity;BMP_temperature;BMP_pressure;BME280_temperature;BME280_humidity;BME280_pressure;Samples;Min_cycle;Max_cycle;Signal;HPM_P1;HPM_P2
2022/04/29 00:01:17;;;;;;;15.63;7.70;;;;;;;9.67;74.88;102887.19;5097143;28;20132;-63
2022/04/29 00:03:42;;;;;;;14.52;7.75;;;;;;;9.66;75.06;102888.03;5097234;28;20043;-63
2022/04/29 00:06:08;;;;;;;13.85;7.53;;;;;;;9.65;75.07;102888.00;5096688;28;20024;-64
2022/04/29 00:08:33;;;;;;;15.73;7.85;;;;;;;9.62;75.71;102890.53;5096673;28;20423;-63
2022/04/29 00:10:58;;;;;;;16.52;7.30;;;;;;;9.55;75.56;102886.00;5096760;28;20032;-64
2022/04/29 00:13:24;;;;;;;15.13;8.15;;;;;;;9.53;76.16;102879.84;5096643;28;20028;-65
2022/04/29 00:15:49;;;;;;;17.95;8.15;;;;;;;9.48;76.01;102878.88;5096616;28;20036;-64
2022/04/29 00:18:15;;;;;;;17.80;7.80;;;;;;;9.47;76.00;102877.13;5096798;28;20040;-63
2022/04/29 00:20:40;;;;;;;15.65;8.38;;;;;;;9.42;75.97;102872.66;5096664;28;20109;-63
2022/04/29 00:23:07;;;;;;;14.48;8.27;;;;;;;9.36;76.32;102869.00;5096150;28;20062;-64
2022/04/29 00:25:32;;;;;;;19.95;8.45;;;;;;;9.34;76.40;102873.34;5096380;28;20063;-63
2022/04/29 00:27:57;;;;;;;20.08;8.00;;;;;;;9.31;76.68;102883.72;5095843;28;20107;-64
2022/04/29 00:30:22;;;;;;;14.00;8.50;;;;;;;9.26;77.38;102870.53;5095909;28;20030;-63
2022/04/29 00:32:48;;;;;;;15.32;8.50;;;;;;;9.25;77.23;102871.38;5096460;28;20032;-64
2022/04/29 00:35:13;;;;;;;17.23;8.57;;;;;;;9.26;77.38;102880.09;5096165;28;20028;-64
2022/04/29 00:37:49;;;;;;;17.70;7.95;;;;;;;9.27;77.08;102874.91;5096333;28;20036;-63
2022/04/29 00:40:17;;;;;;;15.43;8.98;;;;;;;9.16;77.34;102878.09;5096412;28;20031;-63
2022/04/29 00:42:45;;;;;;;14.52;8.90;;;;;;;9.13;77.63;102870.19;5096382;28;20024;-63
2022/04/29 00:45:11;;;;;;;17.50;8.98;;;;;;;9.10;77.92;102867.50;5096194;28;20027;-63
2022/04/29 00:47:36;;;;;;;17.33;9.05;;;;;;;9.06;78.16;102864.81;5096278;28;20487;-63
2022/04/29 00:50:02;;;;;;;15.82;8.73;;;;;;;9.15;77.91;102853.72;5092309;28;20071;-64
2022/04/29 00:52:30;;;;;;;19.00;8.60;;;;;;;9.24;78.12;102859.16;5095577;28;20039;-65
2022/04/29 00:54:59;;;;;;;16.05;9.32;;;;;;;9.18;77.98;102863.38;5096152;28;20028;-64
2022/04/29 00:57:29;;;;;;;16.45;9.00;;;;;;;9.16;77.89;102863.31;5095811;28;20446;-63
2022/04/29 01:00:05;;;;;;;15.88;8.57;;;;;;;9.09;77.78;102864.00;5095823;28;20028;-64
2022/04/29 01:02:31;;;;;;;17.85;8.60;;;;;;;9.10;78.16;102862.28;5095721;28;20162;-63
2022/04/29 01:05:08;;;;;;;15.02;9.00;;;;;;;9.03;77.91;102864.72;5095508;28;20036;-65
2022/04/29 01:07:35;;;;;;;16.38;8.70;;;;;;;8.87;78.85;102852.13;5095972;28;20024;-63
2022/04/29 01:10:01;;;;;;;21.27;9.52;;;;;;;8.87;78.97;102859.06;5095786;28;20028;-64
2022/04/29 01:12:28;;;;;;;17.55;9.15;;;;;;;8.88;79.11;102863.44;5095729;28;20024;-64
2022/04/29 01:15:05;;;;;;;17.42;9.18;;;;;;;8.64;79.17;102838.50;5095442;28;20024;-64
2022/04/29 01:17:35;;;;;;;14.80;8.60;;;;;;;8.73;79.33;102857.00;5095440;28;20100;-63
2022/04/29 01:20:05;;;;;;;18.17;9.07;;;;;;;8.71;79.40;102852.56;5095269;28;20040;-64
2022/04/29 01:22:31;;;;;;;16.02;9.15;;;;;;;8.75;79.41;102848.31;5095423;28;20031;-63
2022/04/29 01:24:57;;;;;;;18.85;8.93;;;;;;;8.72;79.49;102843.91;5095389;28;20059;-65
2022/04/29 01:27:22;;;;;;;17.77;9.57;;;;;;;8.68;79.40;102835.09;5095165;28;20158;-64
2022/04/29 01:29:55;;;;;;;16.27;9.07;;;;;;;8.64;79.82;102845.44;5095151;28;20032;-63
2022/04/29 01:32:21;;;;;;;13.55;9.07;;;;;;;8.56;79.89;102832.16;5095450;28;20035;-64
2022/04/29 01:34:47;;;;;;;18.80;9.27;;;;;;;8.59;80.02;102824.44;5095320;28;20423;-65
2022/04/29 01:37:12;;;;;;;18.20;9.45;;;;;;;8.53;79.70;102823.38;5095369;28;20035;-64
2022/04/29 01:39:37;;;;;;;14.30;8.73;;;;;;;8.42;79.68;102803.94;5094939;28;20366;-64
2022/04/29 01:42:03;;;;;;;16.67;9.38;;;;;;;8.46;79.85;102813.63;5095251;28;20023;-65
2022/04/29 01:44:28;;;;;;;16.63;8.38;;;;;;;8.49;80.01;102824.13;5095093;28;20032;-64
2022/04/29 01:46:53;;;;;;;17.30;8.85;;;;;;;8.41;79.83;102810.00;5095241;28;20031;-64
2022/04/29 01:49:19;;;;;;;15.40;9.20;;;;;;;8.45;80.13;102817.97;5095212;28;20111;-63
2022/04/29 01:51:44;;;;;;;16.63;9.20;;;;;;;8.33;80.62;102820.22;5095086;28;20129;-65
2022/04/29 01:54:11;;;;;;;16.35;9.73;;;;;;;8.23;80.25;102813.84;5077171;28;20047;-65
2022/04/29 01:56:38;;;;;;;15.52;9.27;;;;;;;8.17;80.73;102818.88;5094905;28;20101;-65
2022/04/29 01:59:05;;;;;;;18.45;9.65;;;;;;;8.20;81.09;102810.25;5095132;28;20043;-64
2022/04/29 02:01:30;;;;;;;12.93;8.57;;;;;;;8.19;80.87;102824.13;5094948;28;20042;-64
2022/04/29 02:03:56;;;;;;;16.50;8.95;;;;;;;8.11;80.98;102816.13;5095358;28;20043;-64
2022/04/29 02:06:22;;;;;;;13.80;8.80;;;;;;;8.07;81.28;102816.88;5099356;28;20424;-64
2022/04/29 02:08:48;;;;;;;14.60;8.90;;;;;;;8.01;81.09;102820.16;5099250;28;20039;-64
2022/04/29 02:11:14;;;;;;;16.42;8.80;;;;;;;7.93;81.49;102799.94;5098999;28;20148;-64
2022/04/29 02:13:39;;;;;;;19.83;8.90;;;;;;;7.99;81.43;102821.84;5098635;28;20136;-64
2022/04/29 02:16:04;;;;;;;16.08;9.52;;;;;;;8.00;81.18;102817.50;5098848;28;20032;-64
2022/04/29 02:18:30;;;;;;;15.55;9.43;;;;;;;7.87;81.71;102821.50;5095752;28;20079;-63
2022/04/29 02:20:55;;;;;;;17.15;8.93;;;;;;;7.83;81.86;102818.75;5098958;28;20359;-64
2022/04/29 02:23:21;;;;;;;15.30;8.65;;;;;;;7.75;81.93;102804.63;5098936;28;20442;-65
2022/04/29 02:25:46;;;;;;;15.68;8.82;;;;;;;7.77;81.63;102808.16;5098968;28;20050;-65
2022/04/29 02:28:12;;;;;;;16.27;10.18;;;;;;;7.74;82.20;102808.94;5098592;28;20043;-65
2022/04/29 02:30:37;;;;;;;16.95;9.00;;;;;;;7.81;82.14;102810.88;5098981;28;20039;-64
2022/04/29 02:33:03;;;;;;;21.08;9.45;;;;;;;7.86;82.36;102814.50;5098630;28;20332;-65
2022/04/29 02:35:28;;;;;;;16.13;9.98;;;;;;;7.84;82.14;102810.97;5098733;28;20100;-65
2022/04/29 02:37:53;;;;;;;18.05;9.73;;;;;;;7.84;81.94;102803.16;5098557;28;20086;-63
2022/04/29 02:40:18;;;;;;;21.20;10.00;;;;;;;7.80;81.81;102806.50;5098711;28;20424;-64
2022/04/29 02:42:44;;;;;;;16.67;9.80;;;;;;;7.81;82.43;102804.78;5094869;28;20036;-63
2022/04/29 02:45:09;;;;;;;14.02;8.95;;;;;;;7.80;82.38;102806.50;5098177;28;20435;-64
2022/04/29 02:47:35;;;;;;;18.30;10.00;;;;;;;7.81;82.59;102805.66;5098326;28;20040;-64
2022/04/29 02:50:00;;;;;;;18.30;10.00;;;;;;;7.80;82.66;102816.03;5095597;28;20028;-64
2022/04/29 02:52:25;;;;;;;17.88;10.10;;;;;;;7.80;82.76;102803.00;5098029;28;20043;-64
2022/04/29 02:54:51;;;;;;;17.77;10.07;;;;;;;7.84;82.26;102818.78;5098271;28;20074;-64
2022/04/29 02:57:16;;;;;;;19.98;9.88;;;;;;;7.75;82.22;102813.34;5098330;28;20031;-64
2022/04/29 02:59:41;;;;;;;21.67;9.93;;;;;;;7.67;82.56;102801.78;5098248;28;20050;-63
2022/04/29 03:02:06;;;;;;;16.58;9.98;;;;;;;7.65;82.98;102800.84;5098281;28;20040;-64
2022/04/29 03:04:32;;;;;;;19.38;10.07;;;;;;;7.65;83.20;102811.25;5098295;28;20402;-64
2022/04/29 03:06:57;;;;;;;17.58;9.57;;;;;;;7.68;83.07;102806.16;5097984;28;20039;-63
2022/04/29 03:09:24;;;;;;;17.25;9.95;;;;;;;7.68;82.80;102788.81;5098299;28;20430;-64
2022/04/29 03:11:49;;;;;;;14.13;9.68;;;;;;;7.73;82.79;102790.66;5097817;28;20056;-63
2022/04/29 03:14:15;;;;;;;19.42;10.57;;;;;;;7.68;82.90;102778.38;5097958;28;20128;-63
2022/04/29 03:16:40;;;;;;;17.23;10.13;;;;;;;7.76;82.85;102785.56;5097609;28;20338;-63
2022/04/29 03:19:06;;;;;;;18.80;10.07;;;;;;;7.71;82.56;102788.00;5108705;28;20035;-63
2022/04/29 03:21:33;;;;;;;17.05;10.13;;;;;;;7.72;82.48;102779.34;5118506;28;20387;-63
2022/04/29 03:23:58;;;;;;;18.70;9.73;;;;;;;7.66;82.73;102763.53;5118352;28;20039;-63
2022/04/29 03:26:24;;;;;;;16.95;10.20;;;;;;;7.69;82.56;102767.13;5117985;28;20358;-63
2022/04/29 03:28:49;;;;;;;17.98;10.63;;;;;;;7.70;82.18;102781.03;5117828;28;20092;-63
2022/04/29 03:31:15;;;;;;;18.92;10.68;;;;;;;7.57;82.61;102774.59;5118319;28;20062;-64
2022/04/29 03:33:40;;;;;;;19.02;11.35;;;;;;;7.55;83.23;102780.56;5117726;28;20408;-63
2022/04/29 03:36:06;;;;;;;23.35;11.05;;;;;;;7.51;83.62;102784.81;5117866;28;20066;-64
2022/04/29 03:38:32;;;;;;;21.38;11.05;;;;;;;7.49;83.42;102799.50;5117947;28;20055;-64
2022/04/29 03:40:58;;;;;;;19.95;10.95;;;;;;;7.44;83.77;102802.81;5117923;28;20176;-64
2022/04/29 03:43:23;;;;;;;27.17;11.75;;;;;;;7.44;83.97;102802.81;5117381;28;20057;-64
2022/04/29 03:45:48;;;;;;;16.33;10.93;;;;;;;7.43;84.37;102806.25;5118025;28;20067;-63
2022/04/29 03:48:14;;;;;;;18.80;11.30;;;;;;;7.47;83.72;102789.88;5117272;28;20024;-64
2022/04/29 03:50:40;;;;;;;19.95;11.05;;;;;;;7.47;83.83;102789.88;5117740;28;20031;-64
2022/04/29 03:53:06;;;;;;;17.50;10.93;;;;;;;7.41;84.21;102776.69;5117535;28;20035;-64
2022/04/29 03:55:33;;;;;;;17.15;11.07;;;;;;;7.46;84.32;102788.09;5117900;28;20084;-64
2022/04/29 03:57:59;;;;;;;20.05;11.25;;;;;;;7.41;84.16;102777.56;5117519;28;20055;-64
2022/04/29 04:00:28;;;;;;;21.70;11.73;;;;;;;7.46;84.14;102793.31;5117793;28;20375;-64
2022/04/29 04:02:53;;;;;;;23.35;12.02;;;;;;;7.40;84.30;102794.03;5117329;28;20023;-64
2022/04/29 04:05:19;;;;;;;20.73;11.60;;;;;;;7.34;84.32;102792.09;5117331;28;20031;-64
2022/04/29 04:07:47;;;;;;;20.67;11.82;;;;;;;7.32;84.42;102791.16;5117309;28;20039;-63
2022/04/29 04:10:13;;;;;;;19.27;11.25;;;;;;;7.26;84.91;102785.78;5117128;28;20046;-64
2022/04/29 04:12:46;;;;;;;25.55;11.75;;;;;;;7.21;85.00;102789.06;5117064;28;20035;-65
2022/04/29 04:15:13;;;;;;;20.55;11.75;;;;;;;7.23;85.40;102793.50;5117144;28;20114;-64
2022/04/29 04:17:39;;;;;;;20.25;11.45;;;;;;;7.21;85.16;102789.97;5098853;28;20036;-64
2022/04/29 04:20:06;;;;;;;22.52;12.20;;;;;;;7.26;85.36;102791.00;5117127;28;20499;-64
2022/04/29 04:22:35;;;;;;;24.17;11.77;;;;;;;7.23;85.31;102782.19;5116959;28;20028;-64
2022/04/29 04:25:02;;;;;;;20.45;12.32;;;;;;;7.29;85.50;102787.59;5116829;28;20111;-63
2022/04/29 04:27:29;;;;;;;20.40;11.80;;;;;;;7.32;84.76;102774.66;5116869;28;20327;-64
2022/04/29 04:29:54;;;;;;;20.05;11.73;;;;;;;7.33;84.94;102773.81;5116986;28;20114;-64
2022/04/29 04:32:19;;;;;;;25.40;12.40;;;;;;;7.26;84.84;102771.88;5116884;28;20059;-64
2022/04/29 04:34:51;;;;;;;23.17;11.95;;;;;;;7.31;84.63;102773.78;5116799;28;20039;-64
2022/04/29 04:37:20;;;;;;;25.77;12.90;;;;;;;7.31;84.76;102781.59;5116679;28;20094;-64
2022/04/29 04:39:46;;;;;;;21.27;12.00;;;;;;;7.28;85.24;102772.78;5116288;28;20114;-64
2022/04/29 04:42:12;;;;;;;18.55;11.57;;;;;;;7.30;84.69;102779.81;5116754;28;20059;-63
2022/04/29 04:44:37;;;;;;;20.45;12.07;;;;;;;7.26;84.75;102775.38;5116288;28;20361;-64
2022/04/29 04:47:03;;;;;;;24.90;11.93;;;;;;;7.13;85.60;102757.56;5116550;28;20028;-64
2022/04/29 04:49:29;;;;;;;24.10;12.63;;;;;;;7.25;85.13;102771.00;5116479;28;20035;-64
2022/04/29 04:51:54;;;;;;;19.17;12.23;;;;;;;7.32;85.26;102772.06;5116310;28;20027;-63
2022/04/29 04:54:19;;;;;;;21.58;12.05;;;;;;;7.44;84.64;102771.56;5116384;28;20092;-63
2022/04/29 04:56:44;;;;;;;18.23;11.52;;;;;;;7.44;84.34;102771.56;5116414;28;20070;-63
2022/04/29 04:59:09;;;;;;;19.40;11.98;;;;;;;7.38;84.11;102776.59;5116171;28;20424;-64
2022/04/29 05:01:35;;;;;;;22.27;13.02;;;;;;;7.31;84.91;102758.16;5116183;28;20043;-62
2022/04/29 05:04:00;;;;;;;21.15;12.30;;;;;;;7.25;85.47;102776.22;5116609;28;20043;-63
2022/04/29 05:06:26;;;;;;;24.25;12.50;;;;;;;7.20;85.41;102769.97;5115822;28;20043;-64
2022/04/29 05:08:51;;;;;;;21.35;12.77;;;;;;;7.28;85.39;102768.47;5116213;28;20094;-64
2022/04/29 05:11:16;;;;;;;18.75;12.13;;;;;;;7.39;84.66;102765.31;5116195;28;20031;-64
2022/04/29 05:13:41;;;;;;;24.90;13.38;;;;;;;7.38;84.61;102773.97;5113181;28;20054;-64
2022/04/29 05:16:07;;;;;;;23.23;12.45;;;;;;;7.35;84.36;102769.56;5116197;28;20028;-64
2022/04/29 05:18:32;;;;;;;24.13;13.30;;;;;;;7.28;84.73;102767.59;5097905;28;20461;-65
2022/04/29 05:20:59;;;;;;;24.65;13.00;;;;;;;7.25;84.89;102770.13;5116042;28;20067;-64
2022/04/29 05:23:25;;;;;;;25.80;13.18;;;;;;;7.22;85.02;102765.69;5111649;28;20063;-64
2022/04/29 05:25:50;;;;;;;23.65;12.98;;;;;;;7.23;85.27;102763.97;5100320;28;20090;-64
2022/04/29 05:28:16;;;;;;;25.98;13.30;;;;;;;7.19;85.72;102754.28;5095492;28;20082;-64
2022/04/29 05:30:41;;;;;;;23.20;13.40;;;;;;;7.28;84.97;102778.00;5095490;28;20031;-64
2022/04/29 05:33:07;;;;;;;25.38;13.30;;;;;;;7.24;85.01;102768.34;5095200;28;20064;-63
2022/04/29 05:35:34;;;;;;;23.13;13.30;;;;;;;7.33;85.25;102776.44;5095652;28;20114;-64
2022/04/29 05:38:01;;;;;;;25.75;13.15;;;;;;;7.39;84.76;102784.44;5095078;28;20192;-64
2022/04/29 05:43:12;;;;;;;28.65;13.02;;;;;;;7.34;84.80;102775.59;5095139;28;20400;-64
2022/04/29 05:45:37;;;;;;;25.15;13.55;;;;;;;7.34;85.04;102783.41;5095337;28;20028;-64
2022/04/29 05:48:03;;;;;;;27.10;13.85;;;;;;;7.41;85.09;102779.28;5095228;28;20036;-64
2022/04/29 05:50:29;;;;;;;27.02;13.88;;;;;;;7.59;84.72;102783.34;5095086;28;20032;-64
2022/04/29 05:52:54;;;;;;;28.15;13.55;;;;;;;7.58;84.07;102780.69;5091639;28;20051;-64
2022/04/29 05:55:20;;;;;;;27.95;13.43;;;;;;;7.63;84.19;102784.28;5094897;28;20028;-63
2022/04/29 05:57:45;;;;;;;25.38;14.13;;;;;;;7.66;83.61;102790.47;5095106;28;20038;-65
2022/04/29 06:00:11;;;;;;;26.10;13.73;;;;;;;7.73;83.30;102790.66;5095079;28;20036;-64
2022/04/29 06:02:39;;;;;;;26.38;13.68;;;;;;;7.74;83.26;102795.91;5095052;28;20392;-63
2022/04/29 06:05:05;;;;;;;28.38;14.30;;;;;;;7.71;83.27;102797.53;5094594;28;20038;-64
2022/04/29 06:07:30;;;;;;;27.15;14.02;;;;;;;7.69;83.76;102793.16;5094828;28;20107;-63
2022/04/29 06:09:55;;;;;;;23.98;14.25;;;;;;;7.72;83.61;102794.09;5094806;28;20062;-63
2022/04/29 06:12:20;;;;;;;23.13;14.00;;;;;;;7.76;83.63;102802.06;5095380;28;20056;-63
2022/04/29 06:14:46;;;;;;;24.65;13.45;;;;;;;7.81;83.30;102795.25;5094490;28;20028;-64
2022/04/29 06:17:14;;;;;;;25.90;14.77;;;;;;;7.96;82.95;102797.44;5095052;28;20065;-63
2022/04/29 06:19:39;;;;;;;24.75;13.40;;;;;;;8.09;83.38;102794.34;5094645;28;20034;-63
2022/04/29 06:22:05;;;;;;;25.52;13.27;;;;;;;8.25;82.05;102804.34;5094799;28;20102;-64
2022/04/29 06:24:31;;;;;;;22.13;13.75;;;;;;;8.36;81.44;102800.31;5094760;28;20019;-63
2022/04/29 06:26:56;;;;;;;23.02;13.73;;;;;;;8.31;80.57;102794.06;5094676;28;20044;-65
2022/04/29 06:29:22;;;;;;;20.27;13.50;;;;;;;8.22;80.87;102799.03;5094907;28;20047;-63
2022/04/29 06:31:47;;;;;;;22.58;14.20;;;;;;;8.12;81.48;102794.41;5094707;28;20024;-63
2022/04/29 06:34:12;;;;;;;25.75;14.90;;;;;;;8.21;81.30;102809.44;5094519;28;20111;-63
2022/04/29 06:36:37;;;;;;;26.73;14.68;;;;;;;8.18;81.14;102806.72;5094561;28;20032;-64
2022/04/29 06:39:03;;;;;;;24.92;14.02;;;;;;;8.22;81.48;102813.78;5091040;28;20138;-64
2022/04/29 06:41:28;;;;;;;27.45;14.85;;;;;;;8.31;80.83;102820.13;5094322;28;20027;-64
2022/04/29 06:43:53;;;;;;;25.42;14.63;;;;;;;8.47;80.82;102802.34;5094562;28;20028;-64
2022/04/29 06:46:19;;;;;;;24.40;14.07;;;;;;;8.67;79.60;102815.06;5094391;28;20036;-64
2022/04/29 06:48:45;;;;;;;26.25;14.10;;;;;;;8.74;79.08;102805.66;5097766;28;20323;-63
2022/04/29 06:51:11;;;;;;;27.38;14.57;;;;;;;8.84;78.97;102801.53;5116947;28;20112;-60
2022/04/29 06:53:39;;;;;;;24.58;14.07;;;;;;;8.80;78.22;102800.63;5118316;28;20062;-65
2022/04/29 06:56:05;;;;;;;23.65;13.45;;;;;;;8.84;78.62;102798.94;5118718;28;20039;-64
2022/04/29 06:58:30;;;;;;;22.90;13.68;;;;;;;8.96;77.99;102809.72;5115350;28;20107;-65
2022/04/29 07:00:56;;;;;;;25.35;13.23;;;;;;;8.95;77.17;102806.22;5115473;28;20468;-64
2022/04/29 07:03:21;;;;;;;24.10;13.80;;;;;;;8.93;77.61;102817.47;5118444;28;20024;-64
2022/04/29 07:05:46;;;;;;;26.35;13.98;;;;;;;8.94;77.57;102814.88;5118410;28;20435;-64
2022/04/29 07:08:13;;;;;;;29.98;14.63;;;;;;;8.89;78.22;102815.59;5118106;28;20032;-64
2022/04/29 07:10:40;;;;;;;24.15;14.48;;;;;;;9.01;78.00;102815.91;5118447;28;20031;-65
2022/04/29 07:13:05;;;;;;;28.00;14.18;;;;;;;9.07;76.95;102805.63;5117866;28;20129;-65
2022/04/29 07:15:31;;;;;;;27.10;14.55;;;;;;;8.91;77.65;102814.81;5099313;28;20023;-65
2022/04/29 07:17:56;;;;;;;23.30;14.55;;;;;;;8.87;77.56;102815.56;5114519;28;20039;-64
2022/04/29 07:20:21;;;;;;;24.77;14.63;;;;;;;8.79;78.52;102814.50;5118090;28;20028;-65
2022/04/29 07:22:47;;;;;;;27.33;14.35;;;;;;;8.95;78.24;102811.44;5117750;28;20035;-64
2022/04/29 07:25:13;;;;;;;24.40;14.35;;;;;;;9.03;78.26;102811.59;5117280;28;20100;-65
2022/04/29 07:27:42;;;;;;;25.55;15.02;;;;;;;9.17;77.56;102815.47;5117836;28;20031;-65
2022/04/29 07:30:10;;;;;;;24.88;14.32;;;;;;;9.27;77.47;102821.78;5117977;28;20032;-65
2022/04/29 07:32:35;;;;;;;29.23;15.10;;;;;;;9.30;76.12;102801.84;5114047;28;20204;-65
2022/04/29 07:43:13;;;;;;;29.77;13.93;;;;;;;9.45;75.85;102803.91;5116077;28;20081;-64
2022/04/29 07:45:39;;;;;;;26.13;14.68;;;;;;;9.55;75.65;102803.25;5117209;28;20136;-65
2022/04/29 07:48:06;;;;;;;28.85;14.77;;;;;;;9.61;75.97;102798.16;5117511;28;20028;-66
2022/04/29 07:50:32;;;;;;;27.23;14.15;;;;;;;9.95;75.45;102806.72;5117551;28;20034;-64
2022/04/29 07:52:59;;;;;;;28.88;15.23;;;;;;;10.08;73.98;102809.63;5117306;28;20074;-64
2022/04/29 07:55:24;;;;;;;27.85;14.88;;;;;;;10.15;74.46;102809.75;5116872;28;20131;-64
2022/04/29 07:57:50;;;;;;;26.50;14.27;;;;;;;10.35;73.15;102804.09;5117165;28;20055;-65
2022/04/29 08:00:16;;;;;;;24.55;14.07;;;;;;;10.42;72.78;102811.19;5116812;28;20369;-64
2022/04/29 08:02:41;;;;;;;28.23;15.05;;;;;;;10.57;72.48;102814.94;5116215;28;20358;-65
2022/04/29 08:05:07;;;;;;;26.33;14.90;;;;;;;10.65;72.97;102811.63;5116947;28;20031;-64
2022/04/29 08:07:33;;;;;;;29.85;14.82;;;;;;;10.75;72.38;102817.88;5099155;28;20465;-63
2022/04/29 08:09:58;;;;;;;26.17;14.38;;;;;;;10.79;72.24;102806.59;5117106;28;20092;-66
2022/04/29 08:12:26;;;;;;;30.05;14.15;;;;;;;10.91;71.49;102814.66;5116903;28;20431;-64
2022/04/29 08:14:52;;;;;;;28.38;14.90;;;;;;;10.84;72.14;102815.44;5116915;28;20079;-64
2022/04/29 08:17:19;;;;;;;25.40;14.52;;;;;;;10.77;71.53;102803.97;5117032;28;20039;-65
2022/04/29 08:19:44;;;;;;;25.15;15.27;;;;;;;10.84;71.67;102809.31;5116929;28;20028;-64
2022/04/29 08:22:10;;;;;;;22.55;14.38;;;;;;;10.96;71.69;102812.13;5116807;28;20351;-64
2022/04/29 08:24:35;;;;;;;30.38;14.88;;;;;;;11.16;70.69;102814.22;5117129;28;20070;-64
2022/04/29 08:27:00;;;;;;;25.50;14.85;;;;;;;11.21;70.35;102818.66;5098432;28;20062;-64
2022/04/29 08:29:26;;;;;;;28.38;14.63;;;;;;;11.10;69.66;102821.09;5116618;28;20042;-65
2022/04/29 08:31:51;;;;;;;29.15;15.05;;;;;;;11.09;71.54;102822.81;5116446;28;20039;-64
2022/04/29 08:34:19;;;;;;;26.33;14.65;;;;;;;11.16;70.29;102822.09;5116819;28;20391;-65
2022/04/29 08:36:45;;;;;;;25.17;15.68;;;;;;;11.10;70.93;102826.31;5116583;28;20087;-64
2022/04/29 08:39:10;;;;;;;25.08;14.43;;;;;;;11.14;70.46;102826.41;5116587;28;20118;-65
2022/04/29 08:41:38;;;;;;;23.38;14.32;;;;;;;11.20;70.54;102819.50;5116162;28;20032;-64
2022/04/29 08:44:07;;;;;;;32.40;14.77;;;;;;;11.29;69.71;102814.41;5115955;28;20035;-64
2022/04/29 08:46:33;;;;;;;27.45;14.85;;;;;;;11.25;69.94;102818.75;5116283;28;20031;-62
2022/04/29 08:49:01;;;;;;;26.92;14.68;;;;;;;11.41;70.51;102811.97;5116406;28;20334;-62
2022/04/29 08:51:26;;;;;;;27.35;15.48;;;;;;;11.57;69.28;102826.19;5116409;28;20033;-62
2022/04/29 08:53:51;;;;;;;22.10;14.90;;;;;;;11.53;68.42;102806.91;5116352;28;20028;-62
2022/04/29 08:59:03;;;;;;;24.70;14.40;;;;;;;11.81;68.63;102802.94;5116249;28;20038;-65
2022/04/29 09:01:30;;;;;;;27.60;14.27;;;;;;;11.87;68.85;102803.03;5098314;28;20039;-62
2022/04/29 09:03:55;;;;;;;26.88;14.43;;;;;;;11.91;67.98;102793.47;5116386;28;20050;-63
2022/04/29 09:06:22;;;;;;;27.52;14.07;;;;;;;12.00;68.11;102790.94;5112339;28;20114;-62
2022/04/29 09:08:48;;;;;;;25.15;14.15;;;;;;;12.00;68.00;102788.31;5115471;28;20435;-64
2022/04/29 09:11:25;;;;;;;26.40;13.98;;;;;;;12.01;68.23;102788.31;5112056;28;20043;-65
2022/04/29 09:13:50;;;;;;;26.27;14.40;;;;;;;12.20;67.16;102810.41;5115681;28;20023;-62
2022/04/29 09:16:15;;;;;;;25.13;14.15;;;;;;;12.18;66.92;102813.03;5115898;28;20038;-65
2022/04/29 09:18:49;;;;;;;25.77;14.52;;;;;;;12.22;67.43;102813.06;5115649;28;20027;-63
2022/04/29 09:21:18;;;;;;;24.33;14.52;;;;;;;12.30;67.11;102806.13;5115746;28;20337;-63
2022/04/29 09:23:54;;;;;;;26.27;14.30;;;;;;;12.33;66.81;102816.66;5115993;28;20118;-64
2022/04/29 09:26:28;;;;;;;22.85;14.27;;;;;;;12.43;66.45;102808.94;5098853;28;20083;-64
2022/04/29 09:29:09;;;;;;;23.98;14.48;;;;;;;12.46;66.37;102815.97;5116278;28;20070;-65
2022/04/29 09:32:00;;;;;;;25.05;14.60;;;;;;;12.66;66.04;102817.00;5116002;28;20119;-64
2022/04/29 09:34:50;;;;;;;25.48;13.98;;;;;;;12.63;66.25;102824.91;5115567;28;20070;-64
2022/04/29 09:37:17;;;;;;;22.80;13.95;;;;;;;12.78;65.94;102811.91;5115261;28;20024;-63
2022/04/29 09:39:51;;;;;;;27.42;14.75;;;;;;;12.77;65.61;102818.03;5115595;28;20027;-65
2022/04/29 09:42:17;;;;;;;25.38;14.38;;;;;;;12.87;65.91;102821.59;5115517;28;20336;-65
2022/04/29 09:44:43;;;;;;;29.65;13.10;;;;;;;12.80;65.18;102817.16;5115675;28;20031;-64
2022/04/29 09:47:19;;;;;;;23.67;13.98;;;;;;;12.75;65.87;102826.75;5115843;28;20103;-65
2022/04/29 09:49:56;;;;;;;29.35;13.80;;;;;;;12.85;65.92;102813.69;5115563;28;20028;-64
2022/04/29 09:52:30;;;;;;;25.15;14.35;;;;;;;12.81;65.34;102813.69;5115463;28;20492;-63
2022/04/29 09:55:18;;;;;;;23.30;13.52;;;;;;;12.63;66.88;102817.00;5115344;28;20034;-64
2022/04/29 09:57:52;;;;;;;24.25;14.20;;;;;;;12.45;66.65;102811.56;5115229;28;20039;-63
2022/04/29 10:00:18;;;;;;;22.60;13.88;;;;;;;12.34;66.43;102806.19;5115392;28;20027;-63
2022/04/29 10:02:43;;;;;;;24.95;14.20;;;;;;;12.31;67.54;102810.53;5115190;28;20036;-64
2022/04/29 10:05:08;;;;;;;30.08;14.45;;;;;;;12.29;67.37;102799.16;5112043;28;20126;-63
2022/04/29 10:07:35;;;;;;;23.08;13.60;;;;;;;12.16;67.30;102799.00;5115649;28;20074;-57
2022/04/29 10:10:03;;;;;;;23.23;13.77;;;;;;;12.11;67.74;102815.56;5115398;28;20344;-56
2022/04/29 10:12:29;;;;;;;25.70;14.32;;;;;;;12.04;68.28;102808.47;5115396;28;20038;-62
2022/04/29 10:14:59;;;;;;;28.48;14.13;;;;;;;12.16;68.64;102792.88;5115326;28;20032;-62
2022/04/29 10:23:11;;;;;;;24.17;14.35;;;;;;;12.26;67.51;102789.50;5115509;28;20078;-62
2022/04/29 10:25:42;;;;;;;25.98;14.70;;;;;;;12.31;67.85;102789.53;5116449;28;20048;-62
2022/04/29 10:28:08;;;;;;;22.58;14.02;;;;;;;12.29;67.86;102789.53;5119999;28;20042;-62
2022/04/29 10:30:37;;;;;;;24.95;14.63;;;;;;;12.29;68.01;102794.78;5119131;28;20114;-62
2022/04/29 10:33:08;;;;;;;21.23;13.73;;;;;;;12.43;67.61;102785.31;5119395;28;20443;-62
2022/04/29 10:35:40;;;;;;;27.00;13.95;;;;;;;12.43;67.23;102789.66;5116667;28;20046;-63
2022/04/29 10:38:26;;;;;;;23.73;13.30;;;;;;;12.41;67.62;102786.16;5119157;28;20115;-63
2022/04/29 10:41:18;;;;;;;23.20;13.82;;;;;;;12.52;67.60;102777.50;5118903;28;20027;-63
2022/04/29 10:43:48;;;;;;;21.65;12.95;;;;;;;12.63;65.99;102785.50;5119171;28;20058;-65
2022/04/29 10:46:20;;;;;;;26.23;13.82;;;;;;;12.47;66.45;102781.81;5118882;28;20059;-64
2022/04/29 10:48:46;;;;;;;29.52;14.32;;;;;;;12.49;67.06;102787.09;5119103;28;20472;-62
2022/04/29 10:51:48;;;;;;;23.20;13.48;;;;;;;12.54;66.78;102795.91;5118694;28;20091;-62
2022/04/29 10:54:14;;;;;;;21.20;13.23;;;;;;;12.43;66.75;102794.91;5118815;28;20402;-64
2022/04/29 10:56:39;;;;;;;21.30;13.02;;;;;;;12.35;66.87;102784.31;5118745;28;20059;-64
2022/04/29 10:59:04;;;;;;;26.33;13.27;;;;;;;12.33;66.94;102775.56;5114876;28;20040;-64
2022/04/29 11:01:33;;;;;;;23.98;13.20;;;;;;;12.30;67.37;102769.38;5118187;28;20102;-64
2022/04/29 11:03:59;;;;;;;22.50;12.50;;;;;;;12.35;66.89;102770.31;5118587;28;20043;-63
2022/04/29 11:06:44;;;;;;;22.35;12.80;;;;;;;12.26;67.14;102773.75;5118499;28;20068;-64
2022/04/29 11:09:27;;;;;;;24.85;13.55;;;;;;;12.26;67.78;102765.00;5118823;28;20100;-64
2022/04/29 11:11:53;;;;;;;27.05;13.27;;;;;;;12.29;67.62;102767.66;5118155;28;20027;-62
2022/04/29 11:14:19;;;;;;;23.58;13.10;;;;;;;12.32;67.40;102754.53;5118461;28;20307;-63
2022/04/29 11:16:52;;;;;;;19.00;13.05;;;;;;;12.45;67.29;102762.56;5118309;28;20064;-65
2022/04/29 11:19:22;;;;;;;22.65;12.82;;;;;;;12.63;68.08;102769.72;5115871;28;20039;-64
2022/04/29 11:24:43;;;;;;;22.45;12.85;;;;;;;12.86;66.67;102769.91;5118354;28;20116;-64
2022/04/29 11:27:09;;;;;;;21.60;11.65;;;;;;;12.92;66.44;102771.72;5118565;28;20035;-63
2022/04/29 11:29:44;;;;;;;24.75;12.48;;;;;;;12.98;65.33;102770.03;5118208;28;20084;-63
2022/04/29 11:32:12;;;;;;;27.25;12.27;;;;;;;13.01;65.73;102769.13;5118141;28;20438;-63
2022/04/29 11:34:54;;;;;;;22.58;12.23;;;;;;;13.17;65.39;102764.03;5117887;28;20096;-63
2022/04/29 11:37:23;;;;;;;21.80;11.98;;;;;;;13.30;65.15;102764.13;5117045;28;20307;-64
2022/04/29 11:39:49;;;;;;;18.65;11.20;;;;;;;13.36;63.03;102754.50;5118019;28;20088;-63